sensor_id;sensor_type;location;lat;lon;timestamp;P1;durP1;ratioP1;P2;durP2;ratioP2
71916;SDS011;59793;46.506;6.674;2023-10-19T00:02:08;21.02;;;17.75;;
71916;SDS011;59793;46.506;6.674;2023-10-19T00:04:33;27.00;;;20.40;;
71916;SDS011;59793;46.506;6.674;2023-10-19T00:07:01;28.23;;;23.00;;
71916;SDS011;59793;46.506;6.674;2023-10-19T00:09:29;37.42;;;28.95;;
71916;SDS011;59793;46.506;6.674;2023-10-19T00:12:01;37.15;;;31.10;;
71916;SDS011;59793;46.506;6.674;2023-10-19T00:14:28;36.78;;;30.45;;
71916;SDS011;59793;46.506;6.674;2023-10-19T00:16:53;38.27;;;32.50;;
71916;SDS011;59793;46.506;6.674;2023-10-19T00:19:21;36.60;;;31.25;;
71916;SDS011;59793;46.506;6.674;2023-10-19T00:21:47;35.73;;;28.60;;
71916;SDS011;59793;46.506;6.674;2023-10-19T00:24:17;32.67;;;27.48;;
71916;SDS011;59793;46.506;6.674;2023-10-19T00:26:44;28.10;;;25.08;;
71916;SDS011;59793;46.506;6.674;2023-10-19T00:29:11;26.58;;;22.40;;
71916;SDS011;59793;46.506;6.674;2023-10-19T00:31:55;23.85;;;19.92;;
71916;SDS011;59793;46.506;6.674;2023-10-19T00:34:21;21.88;;;18.20;;
71916;SDS011;59793;46.506;6.674;2023-10-19T00:36:47;21.90;;;17.55;;
71916;SDS011;59793;46.506;6.674;2023-10-19T00:39:15;21.88;;;17.55;;
71916;SDS011;59793;46.506;6.674;2023-10-19T00:41:45;19.70;;;15.85;;
71916;SDS011;59793;46.506;6.674;2023-10-19T00:44:12;19.38;;;16.08;;
71916;SDS011;59793;46.506;6.674;2023-10-19T00:46:41;20.60;;;15.93;;
71916;SDS011;59793;46.506;6.674;2023-10-19T00:49:06;19.03;;;16.83;;
71916;SDS011;59793;46.506;6.674;2023-10-19T00:51:39;24.95;;;18.45;;
71916;SDS011;59793;46.506;6.674;2023-10-19T00:54:24;31.63;;;24.80;;
71916;SDS011;59793;46.506;6.674;2023-10-19T00:56:56;24.95;;;20.65;;
71916;SDS011;59793;46.506;6.674;2023-10-19T00:59:28;28.63;;;24.00;;
71916;SDS011;59793;46.506;6.674;2023-10-19T01:02:00;30.55;;;24.23;;
71916;SDS011;59793;46.506;6.674;2023-10-19T01:04:45;26.75;;;23.13;;
71916;SDS011;59793;46.506;6.674;2023-10-19T01:07:15;29.17;;;24.00;;
71916;SDS011;59793;46.506;6.674;2023-10-19T01:09:47;25.77;;;21.63;;
71916;SDS011;59793;46.506;6.674;2023-10-19T01:12:17;28.65;;;22.80;;
71916;SDS011;59793;46.506;6.674;2023-10-19T01:15:01;25.17;;;22.48;;
71916;SDS011;59793;46.506;6.674;2023-10-19T01:17:33;30.33;;;22.02;;
71916;SDS011;59793;46.506;6.674;2023-10-19T01:20:04;26.08;;;23.27;;
71916;SDS011;59793;46.506;6.674;2023-10-19T01:28:38;27.17;;;22.67;;
71916;SDS011;59793;46.506;6.674;2023-10-19T01:31:07;29.00;;;23.65;;
71916;SDS011;59793;46.506;6.674;2023-10-19T01:33:38;23.05;;;20.65;;
71916;SDS011;59793;46.506;6.674;2023-10-19T01:36:05;25.48;;;21.13;;
71916;SDS011;59793;46.506;6.674;2023-10-19T01:38:36;24.55;;;20.25;;
71916;SDS011;59793;46.506;6.674;2023-10-19T01:41:03;27.33;;;21.03;;
71916;SDS011;59793;46.506;6.674;2023-10-19T01:43:39;23.38;;;17.92;;
71916;SDS011;59793;46.506;6.674;2023-10-19T01:46:05;22.98;;;17.15;;
71916;SDS011;59793;46.506;6.674;2023-10-19T01:48:41;18.25;;;14.95;;
71916;SDS011;59793;46.506;6.674;2023-10-19T01:51:08;18.65;;;15.98;;
71916;SDS011;59793;46.506;6.674;2023-10-19T01:53:36;22.17;;;17.25;;
71916;SDS011;59793;46.506;6.674;2023-10-19T01:56:05;22.58;;;16.75;;
71916;SDS011;59793;46.506;6.674;2023-10-19T01:58:34;25.83;;;16.30;;
71916;SDS011;59793;46.506;6.674;2023-10-19T02:01:01;23.77;;;18.83;;
71916;SDS011;59793;46.506;6.674;2023-10-19T02:03:32;27.65;;;19.98;;
71916;SDS011;59793;46.506;6.674;2023-10-19T02:05:58;26.57;;;19.43;;
71916;SDS011;59793;46.506;6.674;2023-10-19T02:08:24;24.77;;;21.05;;
71916;SDS011;59793;46.506;6.674;2023-10-19T02:10:51;23.08;;;19.02;;
71916;SDS011;59793;46.506;6.674;2023-10-19T02:13:17;22.27;;;18.13;;
71916;SDS011;59793;46.506;6.674;2023-10-19T02:15:43;21.08;;;16.95;;
71916;SDS011;59793;46.506;6.674;2023-10-19T02:18:09;19.83;;;13.83;;
71916;SDS011;59793;46.506;6.674;2023-10-19T02:20:35;17.38;;;13.65;;
71916;SDS011;59793;46.506;6.674;2023-10-19T02:23:05;19.70;;;13.15;;
71916;SDS011;59793;46.506;6.674;2023-10-19T02:25:31;21.23;;;12.25;;
71916;SDS011;59793;46.506;6.674;2023-10-19T02:28:01;13.77;;;11.07;;
71916;SDS011;59793;46.506;6.674;2023-10-19T02:30:27;13.75;;;9.88;;
71916;SDS011;59793;46.506;6.674;2023-10-19T02:32:53;21.53;;;14.80;;
71916;SDS011;59793;46.506;6.674;2023-10-19T02:35:18;18.07;;;12.30;;
71916;SDS011;59793;46.506;6.674;2023-10-19T02:37:43;15.60;;;10.17;;
71916;SDS011;59793;46.506;6.674;2023-10-19T02:40:09;19.30;;;13.27;;
71916;SDS011;59793;46.506;6.674;2023-10-19T02:42:44;15.15;;;11.35;;
71916;SDS011;59793;46.506;6.674;2023-10-19T02:45:14;13.50;;;10.18;;
71916;SDS011;59793;46.506;6.674;2023-10-19T02:47:41;15.00;;;12.35;;
71916;SDS011;59793;46.506;6.674;2023-10-19T02:50:10;12.93;;;9.63;;
71916;SDS011;59793;46.506;6.674;2023-10-19T02:52:41;17.77;;;11.02;;
71916;SDS011;59793;46.506;6.674;2023-10-19T02:55:07;23.70;;;11.80;;
71916;SDS011;59793;46.506;6.674;2023-10-19T02:57:33;16.87;;;10.97;;
71916;SDS011;59793;46.506;6.674;2023-10-19T02:59:58;16.13;;;12.80;;
71916;SDS011;59793;46.506;6.674;2023-10-19T03:02:24;20.27;;;13.67;;
71916;SDS011;59793;46.506;6.674;2023-10-19T03:04:52;18.25;;;14.02;;
71916;SDS011;59793;46.506;6.674;2023-10-19T03:07:20;20.33;;;16.20;;
71916;SDS011;59793;46.506;6.674;2023-10-19T03:09:46;24.87;;;16.47;;
71916;SDS011;59793;46.506;6.674;2023-10-19T03:12:14;19.35;;;15.13;;
71916;SDS011;59793;46.506;6.674;2023-10-19T03:14:40;21.90;;;16.13;;
71916;SDS011;59793;46.506;6.674;2023-10-19T03:19:33;20.17;;;15.68;;
71916;SDS011;59793;46.506;6.674;2023-10-19T03:22:00;19.48;;;13.88;;
71916;SDS011;59793;46.506;6.674;2023-10-19T03:24:25;18.77;;;13.73;;
71916;SDS011;59793;46.506;6.674;2023-10-19T03:27:09;19.38;;;12.77;;
71916;SDS011;59793;46.506;6.674;2023-10-19T03:29:48;16.17;;;13.93;;
71916;SDS011;59793;46.506;6.674;2023-10-19T03:32:25;15.93;;;12.30;;
71916;SDS011;59793;46.506;6.674;2023-10-19T03:34:57;15.95;;;13.85;;
71916;SDS011;59793;46.506;6.674;2023-10-19T03:37:25;14.75;;;13.13;;
71916;SDS011;59793;46.506;6.674;2023-10-19T03:39:53;17.27;;;13.55;;
71916;SDS011;59793;46.506;6.674;2023-10-19T03:42:21;16.05;;;12.93;;
71916;SDS011;59793;46.506;6.674;2023-10-19T03:44:47;16.83;;;13.70;;
71916;SDS011;59793;46.506;6.674;2023-10-19T03:47:12;22.27;;;15.03;;
71916;SDS011;59793;46.506;6.674;2023-10-19T03:52:05;18.58;;;15.65;;
71916;SDS011;59793;46.506;6.674;2023-10-19T03:54:34;12.35;;;10.00;;
71916;SDS011;59793;46.506;6.674;2023-10-19T03:57:05;7.22;;;5.30;;
71916;SDS011;59793;46.506;6.674;2023-10-19T03:59:54;11.45;;;5.50;;
71916;SDS011;59793;46.506;6.674;2023-10-19T04:02:23;9.38;;;4.28;;
71916;SDS011;59793;46.506;6.674;2023-10-19T04:04:54;5.18;;;3.60;;
71916;SDS011;59793;46.506;6.674;2023-10-19T04:07:22;11.00;;;5.78;;
71916;SDS011;59793;46.506;6.674;2023-10-19T04:09:52;8.70;;;4.88;;
71916;SDS011;59793;46.506;6.674;2023-10-19T04:12:33;7.45;;;5.03;;
71916;SDS011;59793;46.506;6.674;2023-10-19T04:15:03;8.90;;;6.18;;
71916;SDS011;59793;46.506;6.674;2023-10-19T04:17:51;10.43;;;6.95;;
71916;SDS011;59793;46.506;6.674;2023-10-19T04:20:20;7.93;;;6.13;;
71916;SDS011;59793;46.506;6.674;2023-10-19T04:22:53;9.63;;;5.32;;
71916;SDS011;59793;46.506;6.674;2023-10-19T04:25:19;9.63;;;6.53;;
71916;SDS011;59793;46.506;6.674;2023-10-19T04:27:45;11.65;;;7.20;;
71916;SDS011;59793;46.506;6.674;2023-10-19T04:30:14;13.10;;;7.23;;
71916;SDS011;59793;46.506;6.674;2023-10-19T04:32:52;9.80;;;5.32;;
71916;SDS011;59793;46.506;6.674;2023-10-19T04:35:20;8.88;;;6.15;;
71916;SDS011;59793;46.506;6.674;2023-10-19T04:37:52;9.73;;;7.40;;
71916;SDS011;59793;46.506;6.674;2023-10-19T04:40:18;9.70;;;7.22;;
71916;SDS011;59793;46.506;6.674;2023-10-19T04:42:48;13.30;;;8.30;;
71916;SDS011;59793;46.506;6.674;2023-10-19T04:45:15;8.57;;;6.30;;
71916;SDS011;59793;46.506;6.674;2023-10-19T04:47:41;8.40;;;4.43;;
71916;SDS011;59793;46.506;6.674;2023-10-19T04:50:06;12.30;;;4.00;;
71916;SDS011;59793;46.506;6.674;2023-10-19T04:52:33;6.75;;;4.05;;
71916;SDS011;59793;46.506;6.674;2023-10-19T04:54:58;8.10;;;3.80;;
71916;SDS011;59793;46.506;6.674;2023-10-19T04:57:24;8.00;;;3.53;;
71916;SDS011;59793;46.506;6.674;2023-10-19T04:59:51;6.30;;;4.22;;
71916;SDS011;59793;46.506;6.674;2023-10-19T05:02:16;8.33;;;3.80;;
71916;SDS011;59793;46.506;6.674;2023-10-19T05:04:42;9.33;;;3.93;;
71916;SDS011;59793;46.506;6.674;2023-10-19T05:07:08;7.63;;;3.70;;
71916;SDS011;59793;46.506;6.674;2023-10-19T05:09:37;7.22;;;3.40;;
71916;SDS011;59793;46.506;6.674;2023-10-19T05:12:08;8.00;;;4.15;;
71916;SDS011;59793;46.506;6.674;2023-10-19T05:14:38;6.15;;;3.42;;
71916;SDS011;59793;46.506;6.674;2023-10-19T05:17:07;7.43;;;3.92;;
71916;SDS011;59793;46.506;6.674;2023-10-19T05:19:37;5.35;;;2.80;;
71916;SDS011;59793;46.506;6.674;2023-10-19T05:22:05;7.25;;;3.55;;
71916;SDS011;59793;46.506;6.674;2023-10-19T05:24:32;8.55;;;3.10;;
71916;SDS011;59793;46.506;6.674;2023-10-19T05:26:58;7.27;;;3.10;;
71916;SDS011;59793;46.506;6.674;2023-10-19T05:29:23;5.33;;;2.27;;
71916;SDS011;59793;46.506;6.674;2023-10-19T05:31:50;5.67;;;2.40;;
71916;SDS011;59793;46.506;6.674;2023-10-19T05:34:19;7.28;;;2.25;;
71916;SDS011;59793;46.506;6.674;2023-10-19T05:36:47;7.55;;;2.60;;
71916;SDS011;59793;46.506;6.674;2023-10-19T05:39:14;5.57;;;2.65;;
71916;SDS011;59793;46.506;6.674;2023-10-19T05:41:43;3.88;;;2.30;;
71916;SDS011;59793;46.506;6.674;2023-10-19T05:44:08;7.73;;;2.70;;
71916;SDS011;59793;46.506;6.674;2023-10-19T05:46:34;6.83;;;2.33;;
71916;SDS011;59793;46.506;6.674;2023-10-19T05:49:00;6.60;;;2.07;;
71916;SDS011;59793;46.506;6.674;2023-10-19T05:51:28;5.30;;;2.33;;
71916;SDS011;59793;46.506;6.674;2023-10-19T05:53:54;4.90;;;2.10;;
71916;SDS011;59793;46.506;6.674;2023-10-19T05:56:26;6.65;;;2.40;;
71916;SDS011;59793;46.506;6.674;2023-10-19T05:58:52;7.83;;;2.47;;
71916;SDS011;59793;46.506;6.674;2023-10-19T06:01:18;5.43;;;2.67;;
71916;SDS011;59793;46.506;6.674;2023-10-19T06:03:44;5.77;;;2.43;;
71916;SDS011;59793;46.506;6.674;2023-10-19T06:06:10;5.00;;;2.47;;
71916;SDS011;59793;46.506;6.674;2023-10-19T06:08:35;9.53;;;2.83;;
71916;SDS011;59793;46.506;6.674;2023-10-19T06:11:01;5.27;;;2.03;;
71916;SDS011;59793;46.506;6.674;2023-10-19T06:13:26;4.70;;;2.77;;
71916;SDS011;59793;46.506;6.674;2023-10-19T06:15:51;6.43;;;3.47;;
71916;SDS011;59793;46.506;6.674;2023-10-19T06:18:17;8.23;;;2.80;;
71916;SDS011;59793;46.506;6.674;2023-10-19T06:20:44;6.05;;;2.78;;
71916;SDS011;59793;46.506;6.674;2023-10-19T06:25:36;5.38;;;2.60;;
71916;SDS011;59793;46.506;6.674;2023-10-19T06:28:02;8.60;;;3.03;;
71916;SDS011;59793;46.506;6.674;2023-10-19T06:30:29;7.32;;;3.35;;
71916;SDS011;59793;46.506;6.674;2023-10-19T06:32:55;7.70;;;3.63;;
71916;SDS011;59793;46.506;6.674;2023-10-19T06:35:28;5.55;;;3.08;;
71916;SDS011;59793;46.506;6.674;2023-10-19T06:37:56;7.15;;;3.30;;
71916;SDS011;59793;46.506;6.674;2023-10-19T06:40:22;6.93;;;3.73;;
71916;SDS011;59793;46.506;6.674;2023-10-19T06:42:48;5.40;;;3.37;;
71916;SDS011;59793;46.506;6.674;2023-10-19T06:45:15;7.05;;;3.08;;
71916;SDS011;59793;46.506;6.674;2023-10-19T06:47:46;5.93;;;2.83;;
71916;SDS011;59793;46.506;6.674;2023-10-19T06:50:13;9.60;;;3.15;;
71916;SDS011;59793;46.506;6.674;2023-10-19T06:52:40;6.78;;;3.10;;
71916;SDS011;59793;46.506;6.674;2023-10-19T06:55:07;5.45;;;2.90;;
71916;SDS011;59793;46.506;6.674;2023-10-19T06:57:45;6.45;;;3.13;;
71916;SDS011;59793;46.506;6.674;2023-10-19T07:00:13;8.13;;;3.50;;
71916;SDS011;59793;46.506;6.674;2023-10-19T07:05:07;6.93;;;3.00;;
71916;SDS011;59793;46.506;6.674;2023-10-19T07:07:40;6.07;;;3.33;;
71916;SDS011;59793;46.506;6.674;2023-10-19T07:10:09;6.57;;;3.38;;
71916;SDS011;59793;46.506;6.674;2023-10-19T07:12:37;9.82;;;4.43;;
71916;SDS011;59793;46.506;6.674;2023-10-19T07:15:05;7.63;;;3.70;;
71916;SDS011;59793;46.506;6.674;2023-10-19T07:17:32;7.88;;;3.22;;
71916;SDS011;59793;46.506;6.674;2023-10-19T07:20:00;8.63;;;2.78;;
71916;SDS011;59793;46.506;6.674;2023-10-19T07:22:25;6.83;;;2.83;;
71916;SDS011;59793;46.506;6.674;2023-10-19T07:24:53;8.15;;;2.80;;
71916;SDS011;59793;46.506;6.674;2023-10-19T07:27:19;8.60;;;2.75;;
71916;SDS011;59793;46.506;6.674;2023-10-19T07:29:46;5.93;;;3.13;;
71916;SDS011;59793;46.506;6.674;2023-10-19T07:32:12;7.47;;;3.05;;
71916;SDS011;59793;46.506;6.674;2023-10-19T07:34:38;5.15;;;2.47;;
71916;SDS011;59793;46.506;6.674;2023-10-19T07:37:04;5.80;;;2.40;;
71916;SDS011;59793;46.506;6.674;2023-10-19T07:39:30;6.03;;;2.50;;
71916;SDS011;59793;46.506;6.674;2023-10-19T07:41:58;5.85;;;2.58;;
71916;SDS011;59793;46.506;6.674;2023-10-19T07:44:24;6.17;;;2.57;;
71916;SDS011;59793;46.506;6.674;2023-10-19T07:46:50;8.23;;;2.38;;
71916;SDS011;59793;46.506;6.674;2023-10-19T07:49:16;12.70;;;3.50;;
71916;SDS011;59793;46.506;6.674;2023-10-19T07:51:44;5.37;;;2.50;;
71916;SDS011;59793;46.506;6.674;2023-10-19T07:54:11;3.88;;;2.53;;
71916;SDS011;59793;46.506;6.674;2023-10-19T07:56:37;7.20;;;2.67;;
71916;SDS011;59793;46.506;6.674;2023-10-19T07:59:02;7.17;;;2.20;;
71916;SDS011;59793;46.506;6.674;2023-10-19T08:01:28;6.70;;;2.63;;
71916;SDS011;59793;46.506;6.674;2023-10-19T08:03:54;5.40;;;2.40;;
71916;SDS011;59793;46.506;6.674;2023-10-19T08:06:21;8.03;;;2.83;;
71916;SDS011;59793;46.506;6.674;2023-10-19T08:08:46;3.80;;;2.40;;
71916;SDS011;59793;46.506;6.674;2023-10-19T08:11:12;5.57;;;2.53;;
71916;SDS011;59793;46.506;6.674;2023-10-19T08:13:37;4.83;;;2.97;;
71916;SDS011;59793;46.506;6.674;2023-10-19T08:16:04;6.07;;;2.70;;
71916;SDS011;59793;46.506;6.674;2023-10-19T08:18:32;11.48;;;3.78;;
71916;SDS011;59793;46.506;6.674;2023-10-19T08:20:59;8.17;;;2.73;;
71916;SDS011;59793;46.506;6.674;2023-10-19T08:23:27;6.50;;;2.72;;
71916;SDS011;59793;46.506;6.674;2023-10-19T08:25:53;6.47;;;3.07;;
71916;SDS011;59793;46.506;6.674;2023-10-19T08:28:19;4.40;;;2.70;;
71916;SDS011;59793;46.506;6.674;2023-10-19T08:30:45;3.73;;;2.23;;
71916;SDS011;59793;46.506;6.674;2023-10-19T08:33:22;7.25;;;3.17;;
71916;SDS011;59793;46.506;6.674;2023-10-19T08:35:51;7.28;;;2.97;;
71916;SDS011;59793;46.506;6.674;2023-10-19T08:38:19;5.60;;;2.78;;
71916;SDS011;59793;46.506;6.674;2023-10-19T08:40:44;5.53;;;2.30;;
71916;SDS011;59793;46.506;6.674;2023-10-19T08:43:10;6.18;;;3.35;;
71916;SDS011;59793;46.506;6.674;2023-10-19T08:45:38;5.38;;;2.67;;
71916;SDS011;59793;46.506;6.674;2023-10-19T08:48:04;5.90;;;2.90;;
71916;SDS011;59793;46.506;6.674;2023-10-19T08:50:30;6.53;;;3.67;;
71916;SDS011;59793;46.506;6.674;2023-10-19T08:52:58;8.18;;;3.33;;
71916;SDS011;59793;46.506;6.674;2023-10-19T08:55:28;9.68;;;3.67;;
71916;SDS011;59793;46.506;6.674;2023-10-19T08:57:55;4.78;;;3.10;;
71916;SDS011;59793;46.506;6.674;2023-10-19T09:00:22;5.20;;;2.80;;
71916;SDS011;59793;46.506;6.674;2023-10-19T09:02:50;7.45;;;2.95;;
71916;SDS011;59793;46.506;6.674;2023-10-19T09:05:16;8.23;;;3.00;;
71916;SDS011;59793;46.506;6.674;2023-10-19T09:07:51;9.23;;;4.10;;
71916;SDS011;59793;46.506;6.674;2023-10-19T09:10:23;9.02;;;4.05;;
71916;SDS011;59793;46.506;6.674;2023-10-19T09:13:06;7.75;;;3.38;;
71916;SDS011;59793;46.506;6.674;2023-10-19T09:15:37;6.38;;;3.40;;
71916;SDS011;59793;46.506;6.674;2023-10-19T09:18:13;9.57;;;3.72;;
71916;SDS011;59793;46.506;6.674;2023-10-19T09:20:43;7.07;;;3.58;;
71916;SDS011;59793;46.506;6.674;2023-10-19T09:23:22;7.03;;;3.67;;
71916;SDS011;59793;46.506;6.674;2023-10-19T09:25:52;7.25;;;3.67;;
71916;SDS011;59793;46.506;6.674;2023-10-19T09:28:21;8.60;;;3.83;;
71916;SDS011;59793;46.506;6.674;2023-10-19T09:30:49;6.93;;;3.42;;
71916;SDS011;59793;46.506;6.674;2023-10-19T09:33:16;6.63;;;3.40;;
71916;SDS011;59793;46.506;6.674;2023-10-19T09:35:47;5.82;;;3.08;;
71916;SDS011;59793;46.506;6.674;2023-10-19T09:38:17;6.18;;;3.15;;
71916;SDS011;59793;46.506;6.674;2023-10-19T09:40:53;7.25;;;2.78;;
71916;SDS011;59793;46.506;6.674;2023-10-19T09:46:18;10.60;;;3.65;;
71916;SDS011;59793;46.506;6.674;2023-10-19T09:48:46;7.50;;;3.67;;
71916;SDS011;59793;46.506;6.674;2023-10-19T09:51:15;6.88;;;3.10;;
71916;SDS011;59793;46.506;6.674;2023-10-19T09:53:46;7.35;;;3.00;;
71916;SDS011;59793;46.506;6.674;2023-10-19T09:56:20;6.55;;;3.35;;
71916;SDS011;59793;46.506;6.674;2023-10-19T09:58:49;8.02;;;3.28;;
71916;SDS011;59793;46.506;6.674;2023-10-19T10:01:18;5.28;;;3.13;;
71916;SDS011;59793;46.506;6.674;2023-10-19T10:03:47;6.55;;;3.42;;
71916;SDS011;59793;46.506;6.674;2023-10-19T10:06:28;13.25;;;5.63;;
71916;SDS011;59793;46.506;6.674;2023-10-19T10:08:54;8.40;;;3.58;;
71916;SDS011;59793;46.506;6.674;2023-10-19T10:13:55;11.65;;;3.95;;
71916;SDS011;59793;46.506;6.674;2023-10-19T10:18:50;7.63;;;3.63;;
71916;SDS011;59793;46.506;6.674;2023-10-19T10:21:19;7.03;;;3.78;;
71916;SDS011;59793;46.506;6.674;2023-10-19T10:23:50;6.57;;;3.85;;
71916;SDS011;59793;46.506;6.674;2023-10-19T10:26:24;5.65;;;3.30;;
71916;SDS011;59793;46.506;6.674;2023-10-19T10:31:43;7.00;;;3.40;;
71916;SDS011;59793;46.506;6.674;2023-10-19T10:34:09;6.32;;;3.17;;
71916;SDS011;59793;46.506;6.674;2023-10-19T10:39:35;6.20;;;2.88;;
71916;SDS011;59793;46.506;6.674;2023-10-19T10:42:05;7.05;;;2.60;;
71916;SDS011;59793;46.506;6.674;2023-10-19T10:44:35;9.82;;;2.90;;
71916;SDS011;59793;46.506;6.674;2023-10-19T10:47:08;9.93;;;3.05;;
71916;SDS011;59793;46.506;6.674;2023-10-19T10:49:51;5.05;;;2.47;;
71916;SDS011;59793;46.506;6.674;2023-10-19T10:52:34;9.23;;;3.53;;
71916;SDS011;59793;46.506;6.674;2023-10-19T10:55:08;6.30;;;2.88;;
71916;SDS011;59793;46.506;6.674;2023-10-19T10:57:43;5.07;;;2.67;;
71916;SDS011;59793;46.506;6.674;2023-10-19T11:00:10;5.53;;;2.90;;
71916;SDS011;59793;46.506;6.674;2023-10-19T11:02:44;7.30;;;3.30;;
71916;SDS011;59793;46.506;6.674;2023-10-19T11:05:12;8.63;;;3.60;;
71916;SDS011;59793;46.506;6.674;2023-10-19T11:07:41;4.38;;;2.38;;
71916;SDS011;59793;46.506;6.674;2023-10-19T11:10:28;5.07;;;3.30;;
71916;SDS011;59793;46.506;6.674;2023-10-19T11:13:03;11.65;;;3.30;;
71916;SDS011;59793;46.506;6.674;2023-10-19T11:15:33;6.35;;;3.38;;
71916;SDS011;59793;46.506;6.674;2023-10-19T11:17:59;9.40;;;4.90;;
71916;SDS011;59793;46.506;6.674;2023-10-19T11:20:26;10.70;;;3.30;;
71916;SDS011;59793;46.506;6.674;2023-10-19T11:22:55;14.15;;;3.70;;
71916;SDS011;59793;46.506;6.674;2023-10-19T11:25:28;7.30;;;3.25;;
71916;SDS011;59793;46.506;6.674;2023-10-19T11:28:16;6.93;;;3.55;;
71916;SDS011;59793;46.506;6.674;2023-10-19T11:30:44;8.35;;;3.90;;
71916;SDS011;59793;46.506;6.674;2023-10-19T11:33:13;10.55;;;4.28;;
71916;SDS011;59793;46.506;6.674;2023-10-19T11:35:43;7.43;;;3.75;;
71916;SDS011;59793;46.506;6.674;2023-10-19T11:38:08;8.53;;;3.43;;
71916;SDS011;59793;46.506;6.674;2023-10-19T11:40:34;6.43;;;3.80;;
71916;SDS011;59793;46.506;6.674;2023-10-19T11:42:59;6.30;;;2.93;;
71916;SDS011;59793;46.506;6.674;2023-10-19T11:47:51;4.53;;;2.90;;
71916;SDS011;59793;46.506;6.674;2023-10-19T11:50:22;6.25;;;2.63;;
71916;SDS011;59793;46.506;6.674;2023-10-19T11:52:49;5.57;;;2.70;;
71916;SDS011;59793;46.506;6.674;2023-10-19T11:57:44;10.23;;;3.25;;
71916;SDS011;59793;46.506;6.674;2023-10-19T12:00:10;5.43;;;2.90;;
71916;SDS011;59793;46.506;6.674;2023-10-19T12:02:46;8.35;;;3.33;;
71916;SDS011;59793;46.506;6.674;2023-10-19T12:05:12;10.77;;;4.17;;
71916;SDS011;59793;46.506;6.674;2023-10-19T12:07:37;6.43;;;3.40;;
71916;SDS011;59793;46.506;6.674;2023-10-19T12:10:12;8.55;;;3.03;;
71916;SDS011;59793;46.506;6.674;2023-10-19T12:12:38;6.07;;;3.42;;
71916;SDS011;59793;46.506;6.674;2023-10-19T12:15:04;7.00;;;2.60;;
71916;SDS011;59793;46.506;6.674;2023-10-19T12:17:33;8.02;;;3.20;;
71916;SDS011;59793;46.506;6.674;2023-10-19T12:19:58;8.67;;;3.27;;
71916;SDS011;59793;46.506;6.674;2023-10-19T12:22:24;6.77;;;3.30;;
71916;SDS011;59793;46.506;6.674;2023-10-19T12:24:53;7.65;;;3.53;;
71916;SDS011;59793;46.506;6.674;2023-10-19T12:27:19;9.88;;;3.70;;
71916;SDS011;59793;46.506;6.674;2023-10-19T12:29:45;6.77;;;3.70;;
71916;SDS011;59793;46.506;6.674;2023-10-19T12:32:10;6.47;;;3.23;;
71916;SDS011;59793;46.506;6.674;2023-10-19T12:34:39;6.13;;;3.78;;
71916;SDS011;59793;46.506;6.674;2023-10-19T12:37:05;6.43;;;3.33;;
71916;SDS011;59793;46.506;6.674;2023-10-19T12:39:33;6.50;;;3.60;;
71916;SDS011;59793;46.506;6.674;2023-10-19T12:42:03;5.28;;;3.10;;
71916;SDS011;59793;46.506;6.674;2023-10-19T12:44:28;10.00;;;3.20;;
71916;SDS011;59793;46.506;6.674;2023-10-19T12:46:55;7.18;;;3.13;;
71916;SDS011;59793;46.506;6.674;2023-10-19T12:49:22;5.20;;;2.50;;
71916;SDS011;59793;46.506;6.674;2023-10-19T12:51:51;8.50;;;2.92;;
71916;SDS011;59793;46.506;6.674;2023-10-19T12:54:17;6.03;;;2.92;;
71916;SDS011;59793;46.506;6.674;2023-10-19T12:56:42;6.22;;;3.13;;
71916;SDS011;59793;46.506;6.674;2023-10-19T12:59:08;7.37;;;3.83;;
71916;SDS011;59793;46.506;6.674;2023-10-19T13:01:34;6.10;;;3.27;;
71916;SDS011;59793;46.506;6.674;2023-10-19T13:04:00;7.10;;;3.13;;
71916;SDS011;59793;46.506;6.674;2023-10-19T13:06:31;6.45;;;3.42;;
71916;SDS011;59793;46.506;6.674;2023-10-19T13:08:58;5.88;;;3.30;;
71916;SDS011;59793;46.506;6.674;2023-10-19T13:11:26;10.80;;;3.90;;
71916;SDS011;59793;46.506;6.674;2023-10-19T13:13:52;7.13;;;3.57;;
71916;SDS011;59793;46.506;6.674;2023-10-19T13:16:17;7.60;;;3.70;;
71916;SDS011;59793;46.506;6.674;2023-10-19T13:18:43;4.77;;;2.93;;
71916;SDS011;59793;46.506;6.674;2023-10-19T13:21:09;7.20;;;3.33;;
71916;SDS011;59793;46.506;6.674;2023-10-19T13:23:36;7.63;;;2.65;;
71916;SDS011;59793;46.506;6.674;2023-10-19T13:26:02;5.87;;;2.77;;
71916;SDS011;59793;46.506;6.674;2023-10-19T13:28:34;5.28;;;2.85;;
71916;SDS011;59793;46.506;6.674;2023-10-19T13:31:02;5.80;;;3.20;;
71916;SDS011;59793;46.506;6.674;2023-10-19T13:33:28;4.25;;;2.65;;
71916;SDS011;59793;46.506;6.674;2023-10-19T13:35:56;5.65;;;2.80;;
71916;SDS011;59793;46.506;6.674;2023-10-19T13:38:23;4.80;;;3.07;;
71916;SDS011;59793;46.506;6.674;2023-10-19T13:40:50;4.80;;;2.83;;
71916;SDS011;59793;46.506;6.674;2023-10-19T13:43:16;4.97;;;2.27;;
71916;SDS011;59793;46.506;6.674;2023-10-19T13:45:46;6.47;;;3.42;;
71916;SDS011;59793;46.506;6.674;2023-10-19T13:48:12;5.03;;;3.03;;
71916;SDS011;59793;46.506;6.674;2023-10-19T13:50:42;8.27;;;3.35;;
71916;SDS011;59793;46.506;6.674;2023-10-19T13:53:10;7.55;;;3.08;;
71916;SDS011;59793;46.506;6.674;2023-10-19T13:55:36;5.97;;;3.43;;
71916;SDS011;59793;46.506;6.674;2023-10-19T13:58:02;4.40;;;3.17;;
71916;SDS011;59793;46.506;6.674;2023-10-19T14:00:27;7.87;;;4.07;;
71916;SDS011;59793;46.506;6.674;2023-10-19T14:02:53;6.67;;;3.60;;
71916;SDS011;59793;46.506;6.674;2023-10-19T14:05:19;6.50;;;3.50;;
71916;SDS011;59793;46.506;6.674;2023-10-19T14:07:48;7.55;;;4.15;;
71916;SDS011;59793;46.506;6.674;2023-10-19T14:10:14;6.32;;;3.72;;
71916;SDS011;59793;46.506;6.674;2023-10-19T14:12:40;8.27;;;5.30;;
71916;SDS011;59793;46.506;6.674;2023-10-19T14:15:13;9.35;;;4.93;;
71916;SDS011;59793;46.506;6.674;2023-10-19T14:17:43;7.07;;;4.88;;
71916;SDS011;59793;46.506;6.674;2023-10-19T14:20:10;6.05;;;4.88;;
71916;SDS011;59793;46.506;6.674;2023-10-19T14:22:40;10.80;;;6.22;;
71916;SDS011;59793;46.506;6.674;2023-10-19T14:25:10;6.80;;;5.90;;
71916;SDS011;59793;46.506;6.674;2023-10-19T14:27:43;11.77;;;6.88;;
71916;SDS011;59793;46.506;6.674;2023-10-19T14:32:45;9.57;;;6.40;;
71916;SDS011;59793;46.506;6.674;2023-10-19T14:35:14;12.38;;;6.30;;
71916;SDS011;59793;46.506;6.674;2023-10-19T14:40:10;10.73;;;6.43;;
71916;SDS011;59793;46.506;6.674;2023-10-19T14:42:41;10.02;;;6.28;;
71916;SDS011;59793;46.506;6.674;2023-10-19T14:47:41;8.23;;;5.38;;
71916;SDS011;59793;46.506;6.674;2023-10-19T14:50:09;8.95;;;6.43;;
71916;SDS011;59793;46.506;6.674;2023-10-19T14:52:36;11.18;;;6.15;;
71916;SDS011;59793;46.506;6.674;2023-10-19T14:55:05;6.68;;;4.88;;
71916;SDS011;59793;46.506;6.674;2023-10-19T14:57:32;11.57;;;5.97;;
71916;SDS011;59793;46.506;6.674;2023-10-19T15:02:29;7.88;;;6.00;;
71916;SDS011;59793;46.506;6.674;2023-10-19T15:04:54;8.37;;;6.43;;
71916;SDS011;59793;46.506;6.674;2023-10-19T15:07:20;7.82;;;6.13;;
71916;SDS011;59793;46.506;6.674;2023-10-19T15:09:46;9.87;;;6.43;;
71916;SDS011;59793;46.506;6.674;2023-10-19T15:12:14;9.43;;;7.07;;
71916;SDS011;59793;46.506;6.674;2023-10-19T15:14:40;10.90;;;8.07;;
71916;SDS011;59793;46.506;6.674;2023-10-19T15:17:08;10.82;;;8.70;;
71916;SDS011;59793;46.506;6.674;2023-10-19T15:19:34;16.63;;;8.77;;
71916;SDS011;59793;46.506;6.674;2023-10-19T15:21:59;12.47;;;9.90;;
71916;SDS011;59793;46.506;6.674;2023-10-19T15:24:24;18.37;;;11.37;;
71916;SDS011;59793;46.506;6.674;2023-10-19T15:26:50;15.50;;;8.95;;
71916;SDS011;59793;46.506;6.674;2023-10-19T15:29:16;17.20;;;11.20;;
71916;SDS011;59793;46.506;6.674;2023-10-19T15:31:41;15.80;;;11.23;;
71916;SDS011;59793;46.506;6.674;2023-10-19T15:34:06;16.23;;;12.83;;